createdAt,value
2019-06-07T00:02:16.431Z,13.41
2019-06-07T00:04:46.848Z,13.41
2019-06-07T00:07:17.848Z,13.27
2019-06-07T00:09:47.072Z,13.38
2019-06-07T00:12:17.623Z,13.51
2019-06-07T00:14:46.690Z,13.50
2019-06-07T00:17:17.630Z,13.57
2019-06-07T00:19:48.326Z,13.00
2019-06-07T00:22:30.045Z,13.00
2019-06-07T00:24:48.582Z,13.04
2019-06-07T00:27:20.629Z,12.71
2019-06-07T00:29:48.740Z,12.88
2019-06-07T00:32:20.074Z,13.06
2019-06-07T00:34:47.906Z,12.77
2019-06-07T00:37:19.761Z,12.91
2019-06-07T00:39:59.457Z,12.86
2019-06-07T00:42:20.644Z,12.86
2019-06-07T00:44:49.389Z,12.46
2019-06-07T00:47:24.944Z,12.54
2019-06-07T00:49:51.779Z,12.34
2019-06-07T00:53:11.860Z,12.34
2019-06-07T00:54:53.672Z,12.20
2019-06-07T00:57:24.453Z,12.58
2019-06-07T00:59:55.046Z,12.61
2019-06-07T01:02:29.020Z,12.61
2019-06-07T01:04:55.300Z,12.68
2019-06-07T01:07:24.612Z,12.41
2019-06-07T01:09:53.438Z,12.50
2019-06-07T01:12:24.591Z,12.37
2019-06-07T01:14:53.390Z,12.41
2019-06-07T01:17:40.770Z,12.21
2019-06-07T01:19:57.834Z,12.51
2019-06-07T01:22:28.895Z,12.60
2019-06-07T01:25:00.585Z,12.69
2019-06-07T01:27:32.551Z,12.74
2019-06-07T01:30:01.432Z,12.74
2019-06-07T01:32:31.833Z,12.67
2019-06-07T01:35:01.017Z,12.18
2019-06-07T01:37:30.464Z,11.98
2019-06-07T01:40:00.582Z,11.83
2019-06-07T01:42:31.021Z,12.11
2019-06-07T01:45:00.032Z,12.11
2019-06-07T01:47:31.956Z,12.15
2019-06-07T01:49:59.911Z,12.23
2019-06-07T01:52:29.735Z,12.18
2019-06-07T01:54:59.236Z,12.11
2019-06-07T01:57:45.633Z,11.78
2019-06-07T02:00:02.364Z,11.78
2019-06-07T02:02:33.730Z,11.93
2019-06-07T02:05:03.674Z,11.86
2019-06-07T02:07:33.210Z,12.25
2019-06-07T02:10:02.458Z,12.34
2019-06-07T02:12:42.322Z,12.44
2019-06-07T02:15:05.023Z,12.38
2019-06-07T02:17:33.958Z,12.37
2019-06-07T02:20:03.851Z,12.37
2019-06-07T02:22:34.581Z,12.63
2019-06-07T02:25:34.992Z,12.49
2019-06-07T02:27:35.034Z,12.26
2019-06-07T02:30:36.720Z,12.66
2019-06-07T02:32:38.467Z,12.49
2019-06-07T02:35:08.406Z,12.65
2019-06-07T02:37:37.739Z,12.35
2019-06-07T02:40:08.945Z,12.77
2019-06-07T02:42:42.098Z,12.86
2019-06-07T02:45:10.806Z,12.97
2019-06-07T02:47:40.741Z,12.81
2019-06-07T02:50:10.954Z,12.98
2019-06-07T02:52:41.281Z,12.97
2019-06-07T02:55:12.705Z,13.08
2019-06-07T02:57:43.922Z,13.02
2019-06-07T03:01:00.772Z,12.71
2019-06-07T03:03:05.407Z,12.63
2019-06-07T03:05:38.754Z,13.04
2019-06-07T03:08:06.537Z,13.00
2019-06-07T03:10:37.829Z,13.29
2019-06-07T03:13:09.791Z,12.89
2019-06-07T03:15:49.666Z,12.89
2019-06-07T03:18:32.194Z,13.21
2019-06-07T03:21:05.392Z,13.36
2019-06-07T03:25:09.581Z,13.86
2019-06-07T03:27:48.261Z,14.06
2019-06-07T03:30:36.175Z,14.06
2019-06-07T03:32:47.223Z,14.25
2019-06-07T03:35:11.571Z,13.83
2019-06-07T03:37:42.832Z,14.06
2019-06-07T03:40:11.633Z,14.06
2019-06-07T03:42:40.531Z,14.55
2019-06-07T03:45:09.566Z,14.55
2019-06-07T03:47:41.417Z,14.48
2019-06-07T03:50:07.837Z,14.10
2019-06-07T03:52:39.113Z,13.85
2019-06-07T03:55:07.697Z,13.81
2019-06-07T03:58:24.839Z,13.81
2019-06-07T04:00:07.070Z,13.93
2019-06-07T04:02:40.815Z,13.93
2019-06-07T04:05:07.416Z,13.86
2019-06-07T04:07:43.360Z,14.17
2019-06-07T04:10:08.717Z,14.31
2019-06-07T04:12:41.323Z,14.53
2019-06-07T04:15:07.740Z,14.53
2019-06-07T04:17:38.751Z,14.77
2019-06-07T04:20:07.065Z,15.27
2019-06-07T04:22:42.035Z,15.56
2019-06-07T04:25:10.481Z,15.68
2019-06-07T04:27:40.952Z,15.84
2019-06-07T04:30:13.921Z,16.17
2019-06-07T04:32:44.828Z,16.19
2019-06-07T04:35:13.243Z,15.98
2019-06-07T04:37:44.417Z,17.19
2019-06-07T04:40:15.513Z,20.64
2019-06-07T04:42:46.059Z,20.64
2019-06-07T04:45:33.055Z,20.96
2019-06-07T04:47:49.764Z,22.65
2019-06-07T04:50:17.954Z,22.93
2019-06-07T04:52:47.741Z,23.02
2019-06-07T04:55:16.550Z,23.04
2019-06-07T04:57:45.694Z,23.49
2019-06-07T05:00:49.710Z,23.49
2019-06-07T05:02:50.432Z,24.86
2019-06-07T05:05:19.438Z,25.92
2019-06-07T05:07:48.439Z,25.20
2019-06-07T05:10:17.561Z,26.01
2019-06-07T05:12:46.730Z,26.44
2019-06-07T05:15:14.846Z,27.25
2019-06-07T05:17:45.700Z,28.20
2019-06-07T05:20:16.135Z,27.62
2019-06-07T05:22:48.151Z,27.62
2019-06-07T05:25:17.905Z,29.12
2019-06-07T05:27:47.709Z,30.00
2019-06-07T05:33:11.127Z,29.69
2019-06-07T05:35:43.295Z,29.98
2019-06-07T05:38:11.411Z,31.14
2019-06-07T05:40:43.875Z,31.04
2019-06-07T05:43:35.123Z,31.31
2019-06-07T05:46:04.426Z,30.73
2019-06-07T05:48:34.178Z,31.68
2019-06-07T05:51:03.718Z,32.86
2019-06-07T05:53:32.883Z,32.94
2019-06-07T05:56:02.134Z,33.92
2019-06-07T05:58:31.405Z,34.52
2019-06-07T06:01:41.109Z,35.43
2019-06-07T06:03:31.045Z,36.09
2019-06-07T06:06:00.086Z,34.05
2019-06-07T06:08:29.697Z,31.62
2019-06-07T06:10:58.814Z,31.33
2019-06-07T06:13:27.919Z,33.49
2019-06-07T06:16:02.178Z,32.28
2019-06-07T06:18:26.845Z,33.63
2019-06-07T06:21:15.521Z,34.22
2019-06-07T06:23:26.731Z,36.86
2019-06-07T06:25:57.406Z,36.86
2019-06-07T06:28:25.726Z,37.33
2019-06-07T06:30:53.860Z,37.81
2019-06-07T06:33:33.445Z,37.94
2019-06-07T06:35:53.378Z,37.17
2019-06-07T06:38:22.591Z,38.03
2019-06-07T06:41:05.256Z,40.10
2019-06-07T06:43:22.740Z,40.10
2019-06-07T06:45:50.902Z,39.55
2019-06-07T06:48:20.296Z,40.45
2019-06-07T06:50:52.337Z,39.51
2019-06-07T06:53:20.129Z,38.98
2019-06-07T06:55:51.237Z,40.63
2019-06-07T06:58:20.576Z,41.33
2019-06-07T07:01:05.291Z,40.80
2019-06-07T07:03:56.644Z,39.93
2019-06-07T07:05:56.291Z,39.93
2019-06-07T07:08:25.567Z,38.71
2019-06-07T07:10:55.390Z,39.80
2019-06-07T07:13:24.573Z,39.94
2019-06-07T07:15:57.781Z,39.25
2019-06-07T07:18:24.940Z,38.01
2019-06-07T07:20:57.273Z,39.50
2019-06-07T07:23:25.088Z,35.95
2019-06-07T07:25:59.291Z,36.82
2019-06-07T07:28:25.049Z,36.59
2019-06-07T07:30:57.143Z,35.49
2019-06-07T07:34:19.988Z,39.43
2019-06-07T07:36:35.150Z,38.18
2019-06-07T07:38:27.958Z,40.04
2019-06-07T07:41:14.163Z,40.04
2019-06-07T07:43:30.114Z,36.22
2019-06-07T07:46:06.105Z,36.55
2019-06-07T07:48:33.522Z,37.74
2019-06-07T07:51:03.331Z,39.51
2019-06-07T07:53:47.535Z,40.41
2019-06-07T07:56:03.089Z,40.41
2019-06-07T07:58:34.936Z,39.94
2019-06-07T08:01:10.038Z,40.18
2019-06-07T08:03:35.523Z,41.29
2019-06-07T08:06:04.724Z,42.05
2019-06-07T08:08:32.966Z,42.05
2019-06-07T08:11:02.596Z,41.39
2019-06-07T08:13:32.303Z,41.05
2019-06-07T08:16:11.221Z,38.77
2019-06-07T08:18:33.498Z,36.36
2019-06-07T08:21:21.507Z,38.58
2019-06-07T08:23:34.015Z,40.01
2019-06-07T08:26:04.515Z,39.44
2019-06-07T08:28:33.703Z,37.90
2019-06-07T08:31:06.754Z,37.90
2019-06-07T08:33:32.696Z,38.20
2019-06-07T08:36:15.104Z,38.55
2019-06-07T08:38:46.892Z,38.55
2019-06-07T08:41:11.381Z,37.92
2019-06-07T08:43:34.396Z,36.12
2019-06-07T08:46:07.463Z,36.48
2019-06-07T08:48:34.683Z,36.30
2019-06-07T08:51:08.155Z,41.51
2019-06-07T08:53:35.572Z,41.51
2019-06-07T08:56:09.871Z,37.15
2019-06-07T08:58:37.029Z,37.15
2019-06-07T09:01:08.664Z,34.83
2019-06-07T09:03:37.076Z,38.13
2019-06-07T09:06:41.093Z,39.98
2019-06-07T09:08:37.743Z,38.51
2019-06-07T09:11:10.950Z,38.51
2019-06-07T09:13:37.113Z,40.87
2019-06-07T09:16:08.924Z,40.26
2019-06-07T09:18:43.662Z,40.83
2019-06-07T09:21:09.927Z,40.66
2019-06-07T09:23:39.150Z,42.80
2019-06-07T09:26:16.640Z,41.49
2019-06-07T09:28:40.982Z,41.41
2019-06-07T09:32:05.896Z,40.19
2019-06-07T09:34:35.297Z,41.22
2019-06-07T09:37:54.199Z,44.21
2019-06-07T09:39:40.457Z,46.08
2019-06-07T09:42:12.720Z,44.11
2019-06-07T09:44:42.022Z,42.47
2019-06-07T09:47:30.667Z,41.76
2019-06-07T09:49:42.832Z,40.35
2019-06-07T09:52:12.534Z,40.35
2019-06-07T09:55:04.387Z,38.80
2019-06-07T09:57:17.502Z,38.80
2019-06-07T09:59:44.846Z,37.78
2019-06-07T10:02:15.570Z,36.71
2019-06-07T10:04:44.076Z,39.34
2019-06-07T10:07:30.684Z,39.34
2019-06-07T10:12:20.248Z,40.78
2019-06-07T10:14:49.585Z,40.50
2019-06-07T10:17:19.868Z,43.69
2019-06-07T10:19:49.609Z,43.69
2019-06-07T10:22:23.513Z,42.80
2019-06-07T10:24:52.874Z,42.80
2019-06-07T10:27:23.435Z,43.90
2019-06-07T10:29:52.671Z,41.89
2019-06-07T10:32:23.092Z,39.28
2019-06-07T10:34:53.328Z,40.28
2019-06-07T10:37:22.584Z,41.71
2019-06-07T10:39:51.812Z,44.30
2019-06-07T10:42:21.592Z,44.30
2019-06-07T10:44:50.984Z,46.63
2019-06-07T10:48:11.780Z,46.22
2019-06-07T10:50:41.504Z,42.63
2019-06-07T10:53:12.595Z,39.89
2019-06-07T10:55:41.998Z,42.62
2019-06-07T10:58:13.184Z,41.66
2019-06-07T11:00:43.338Z,40.16
2019-06-07T11:03:14.219Z,41.05
2019-06-07T11:05:44.016Z,43.24
2019-06-07T11:08:14.913Z,45.19
2019-06-07T11:10:44.525Z,44.34
2019-06-07T11:13:14.470Z,42.13
2019-06-07T11:15:45.142Z,40.57
2019-06-07T11:18:15.026Z,40.57
2019-06-07T11:20:45.612Z,43.09
2019-06-07T11:23:14.356Z,42.37
2019-06-07T11:25:46.701Z,41.44
2019-06-07T11:28:16.066Z,41.44
2019-06-07T11:30:46.978Z,39.07
2019-06-07T11:33:16.844Z,39.07
2019-06-07T11:35:51.650Z,41.12
2019-06-07T11:38:21.500Z,38.83
2019-06-07T11:40:51.563Z,39.50
2019-06-07T11:43:21.101Z,39.50
2019-06-07T11:45:53.274Z,38.68
2019-06-07T11:48:23.996Z,38.51
2019-06-07T11:50:54.321Z,38.41
2019-06-07T11:53:24.008Z,39.96
2019-06-07T11:55:55.581Z,39.36
2019-06-07T11:58:27.582Z,40.02
2019-06-07T12:00:57.153Z,38.59
2019-06-07T12:03:27.285Z,38.59
2019-06-07T12:05:59.055Z,38.81
2019-06-07T12:08:34.896Z,37.46
2019-06-07T12:11:04.485Z,39.61
2019-06-07T12:13:36.746Z,39.61
2019-06-07T12:16:21.991Z,39.40
2019-06-07T12:19:01.224Z,38.41
2019-06-07T12:21:33.546Z,39.44
2019-06-07T12:24:03.034Z,38.10
2019-06-07T12:26:32.049Z,38.47
2019-06-07T12:29:01.845Z,38.51
2019-06-07T12:31:31.120Z,38.50
2019-06-07T12:34:15.493Z,38.20
2019-06-07T12:36:44.025Z,38.19
2019-06-07T12:39:13.910Z,38.99
2019-06-07T12:43:33.980Z,39.14
2019-06-07T12:46:03.256Z,38.63
2019-06-07T12:48:32.604Z,37.49
2019-06-07T12:51:02.483Z,37.50
2019-06-07T12:53:31.586Z,37.99
2019-06-07T12:56:00.367Z,39.89
2019-06-07T12:58:36.040Z,39.89
2019-06-07T13:01:00.719Z,39.07
2019-06-07T13:03:28.897Z,39.07
2019-06-07T13:05:57.984Z,40.10
2019-06-07T13:08:28.198Z,38.42
2019-06-07T13:11:13.605Z,35.30
2019-06-07T13:13:28.702Z,36.27
2019-06-07T13:15:57.080Z,35.99
2019-06-07T13:18:26.120Z,36.05
2019-06-07T13:20:55.601Z,35.61
2019-06-07T13:23:24.777Z,35.19
2019-06-07T13:25:54.134Z,34.80
2019-06-07T13:28:24.634Z,35.07
2019-06-07T13:30:53.709Z,34.73
2019-06-07T13:33:23.619Z,34.28
2019-06-07T13:35:52.714Z,34.28
2019-06-07T13:38:25.764Z,33.87
2019-06-07T13:40:56.740Z,34.13
2019-06-07T13:43:25.955Z,35.48
2019-06-07T13:45:54.943Z,34.52
2019-06-07T13:48:25.347Z,35.50
2019-06-07T13:50:54.577Z,34.81
2019-06-07T13:53:25.032Z,33.61
2019-06-07T13:55:53.948Z,33.61
2019-06-07T13:58:24.145Z,33.42
2019-06-07T14:00:53.463Z,33.89
2019-06-07T14:03:26.800Z,34.03
2019-06-07T14:05:53.656Z,34.08
2019-06-07T14:08:23.160Z,34.17
2019-06-07T14:10:52.054Z,34.20
2019-06-07T14:13:21.556Z,33.67
2019-06-07T14:15:50.719Z,33.60
2019-06-07T14:18:20.416Z,34.10
2019-06-07T14:20:49.420Z,34.98
2019-06-07T14:23:18.605Z,35.07
2019-06-07T14:25:46.851Z,35.26
2019-06-07T14:28:15.977Z,35.26
2019-06-07T14:30:44.969Z,34.38
2019-06-07T14:33:14.014Z,34.34
2019-06-07T14:35:43.118Z,34.22
2019-06-07T14:38:12.379Z,34.45
2019-06-07T14:40:41.532Z,33.93
2019-06-07T14:43:10.528Z,34.29
2019-06-07T14:45:39.552Z,34.75
2019-06-07T14:48:08.647Z,34.90
2019-06-07T14:50:38.553Z,35.60
2019-06-07T14:53:07.454Z,35.60
2019-06-07T14:55:36.493Z,36.00
2019-06-07T14:58:05.742Z,35.27
2019-06-07T15:00:53.460Z,34.93
2019-06-07T15:03:22.559Z,35.42
2019-06-07T15:05:51.617Z,36.32
2019-06-07T15:08:20.608Z,36.13
2019-06-07T15:10:50.011Z,35.87
2019-06-07T15:13:19.208Z,35.87
2019-06-07T15:15:52.791Z,36.21
2019-06-07T15:18:21.734Z,36.31
2019-06-07T15:20:50.664Z,35.63
2019-06-07T15:23:19.914Z,35.74
2019-06-07T15:25:49.163Z,35.76
2019-06-07T15:28:17.937Z,35.39
2019-06-07T15:30:46.904Z,35.75
2019-06-07T15:33:15.711Z,35.61
2019-06-07T15:35:44.836Z,35.75
2019-06-07T15:38:13.764Z,35.69
2019-06-07T15:40:42.038Z,35.76
2019-06-07T15:43:11.114Z,35.59
2019-06-07T15:45:40.098Z,35.58
2019-06-07T15:48:08.952Z,34.95
2019-06-07T15:50:38.375Z,35.22
2019-06-07T15:53:07.608Z,35.36
2019-06-07T15:55:41.068Z,35.81
2019-06-07T15:58:07.991Z,36.12
2019-06-07T16:00:37.423Z,35.89
2019-06-07T16:03:06.653Z,36.25
2019-06-07T16:05:36.457Z,35.82
2019-06-07T16:08:06.026Z,35.82
2019-06-07T16:10:34.998Z,36.28
2019-06-07T16:13:04.184Z,36.28
2019-06-07T16:15:34.745Z,36.22
2019-06-07T16:18:04.143Z,36.47
2019-06-07T16:20:35.267Z,36.75
2019-06-07T16:23:04.750Z,37.02
2019-06-07T16:25:33.974Z,36.54
2019-06-07T16:28:03.481Z,36.46
2019-06-07T16:30:32.528Z,36.62
2019-06-07T16:33:01.476Z,36.45
2019-06-07T16:35:30.637Z,36.56
2019-06-07T16:37:58.981Z,37.16
2019-06-07T16:40:28.077Z,37.16
2019-06-07T16:43:16.121Z,37.01
2019-06-07T16:45:34.314Z,37.16
2019-06-07T16:48:03.931Z,36.23
2019-06-07T16:50:33.026Z,35.11
2019-06-07T16:53:02.485Z,34.60
2019-06-07T16:55:31.478Z,33.40
2019-06-07T16:58:00.428Z,33.06
2019-06-07T17:00:29.578Z,33.01
2019-06-07T17:02:58.667Z,32.52
2019-06-07T17:05:27.974Z,31.87
2019-06-07T17:07:56.981Z,31.43
2019-06-07T17:10:26.021Z,30.75
2019-06-07T17:12:54.989Z,30.49
2019-06-07T17:15:24.069Z,30.71
2019-06-07T17:18:54.034Z,29.96
2019-06-07T17:21:23.131Z,29.37
2019-06-07T17:23:52.313Z,29.11
2019-06-07T17:26:21.308Z,28.78
2019-06-07T17:28:50.188Z,28.72
2019-06-07T17:32:55.193Z,28.75
2019-06-07T17:35:15.797Z,28.80
2019-06-07T17:37:46.328Z,28.80
2019-06-07T17:40:16.721Z,28.86
2019-06-07T17:42:45.376Z,28.21
2019-06-07T17:45:15.576Z,28.23
2019-06-07T17:47:45.940Z,28.06
2019-06-07T17:50:16.563Z,27.64
2019-06-07T17:52:45.951Z,26.18
2019-06-07T17:55:15.986Z,26.18
2019-06-07T17:57:46.395Z,25.42
2019-06-07T18:00:33.468Z,24.71
2019-06-07T18:02:48.779Z,24.71
2019-06-07T18:05:17.864Z,24.88
2019-06-07T18:07:49.765Z,24.73
2019-06-07T18:10:35.599Z,24.63
2019-06-07T18:13:05.192Z,24.34
2019-06-07T18:15:41.419Z,23.97
2019-06-07T18:18:11.535Z,24.27
2019-06-07T18:20:41.119Z,24.03
2019-06-07T18:23:10.914Z,24.14
2019-06-07T18:25:40.296Z,23.65
2019-06-07T18:28:09.979Z,23.24
2019-06-07T18:30:39.478Z,23.43
2019-06-07T18:33:08.593Z,23.56
2019-06-07T18:35:37.559Z,23.39
2019-06-07T18:38:06.515Z,23.50
2019-06-07T18:40:35.576Z,23.07
2019-06-07T18:43:07.136Z,23.07
2019-06-07T18:45:38.345Z,22.97
2019-06-07T18:48:07.579Z,23.13
2019-06-07T18:50:36.150Z,22.58
2019-06-07T18:53:05.437Z,22.58
2019-06-07T18:55:34.819Z,22.75
2019-06-07T18:58:04.159Z,22.14
2019-06-07T19:00:36.644Z,22.20
2019-06-07T19:03:06.577Z,22.41
2019-06-07T19:05:36.521Z,22.09
2019-06-07T19:08:15.547Z,22.09
2019-06-07T19:10:54.925Z,22.05
2019-06-07T19:13:27.510Z,22.51
2019-06-07T19:15:57.692Z,22.37
2019-06-07T19:18:26.773Z,22.43
2019-06-07T19:20:56.312Z,22.12
2019-06-07T19:23:25.742Z,22.54
2019-06-07T19:25:56.350Z,22.47
2019-06-07T19:28:25.896Z,22.42
2019-06-07T19:30:59.334Z,22.47
2019-06-07T19:33:28.465Z,22.29
2019-06-07T19:35:57.776Z,22.21
2019-06-07T19:38:27.083Z,22.12
2019-06-07T19:40:56.489Z,21.90
2019-06-07T19:43:25.793Z,21.42
2019-06-07T19:45:56.175Z,21.86
2019-06-07T19:48:26.978Z,22.31
2019-06-07T19:50:56.905Z,22.26
2019-06-07T19:53:26.100Z,21.82
2019-06-07T19:55:55.314Z,22.16
2019-06-07T19:58:24.762Z,21.91
2019-06-07T20:00:57.602Z,22.28
2019-06-07T20:03:26.747Z,22.43
2019-06-07T20:05:56.098Z,22.76
2019-06-07T20:08:27.750Z,22.23
2019-06-07T20:10:56.433Z,22.08
2019-06-07T20:13:26.793Z,22.08
2019-06-07T20:15:55.327Z,21.91
2019-06-07T20:18:27.777Z,21.52
2019-06-07T20:20:56.483Z,22.00
2019-06-07T20:23:32.484Z,22.05
2019-06-07T20:26:02.497Z,22.09
2019-06-07T20:28:30.954Z,22.09
2019-06-07T20:31:05.933Z,22.25
2019-06-07T20:33:35.515Z,21.86
2019-06-07T20:36:04.869Z,21.73
2019-06-07T20:38:34.526Z,21.73
2019-06-07T20:41:03.565Z,22.11
2019-06-07T20:43:32.519Z,21.90
2019-06-07T20:46:08.211Z,22.04
2019-06-07T20:48:38.193Z,22.07
2019-06-07T20:51:08.719Z,22.07
2019-06-07T20:53:38.030Z,21.90
2019-06-07T20:56:07.070Z,21.63
2019-06-07T20:58:36.503Z,21.50
2019-06-07T21:01:06.941Z,21.50
2019-06-07T21:03:36.250Z,21.64
2019-06-07T21:06:07.497Z,21.70
2019-06-07T21:08:36.168Z,21.93
2019-06-07T21:11:07.768Z,21.93
2019-06-07T21:13:37.161Z,21.79
2019-06-07T21:16:08.266Z,21.82
2019-06-07T21:18:37.868Z,21.39
2019-06-07T21:21:08.473Z,21.37
2019-06-07T21:23:40.160Z,21.17
2019-06-07T21:26:11.071Z,21.17
2019-06-07T21:28:41.539Z,21.39
2019-06-07T21:31:12.370Z,21.45
2019-06-07T21:33:41.577Z,21.68
2019-06-07T21:36:11.785Z,21.62
2019-06-07T21:38:41.499Z,21.68
2019-06-07T21:41:10.685Z,21.65
2019-06-07T21:43:39.029Z,21.42
2019-06-07T21:46:17.249Z,21.35
2019-06-07T21:48:40.498Z,20.64
2019-06-07T21:51:08.911Z,20.25
2019-06-07T21:53:38.130Z,20.25
2019-06-07T21:56:08.884Z,20.08
2019-06-07T21:58:38.292Z,20.08
2019-06-07T22:01:31.501Z,19.82
2019-06-07T22:04:00.899Z,19.93
2019-06-07T22:06:30.004Z,19.93
2019-06-07T22:08:59.478Z,19.99
2019-06-07T22:11:28.750Z,19.92
2019-06-07T22:13:59.425Z,19.85
2019-06-07T22:16:29.557Z,19.42
2019-06-07T22:18:58.253Z,19.60
2019-06-07T22:21:28.002Z,19.54
2019-06-07T22:23:57.009Z,19.60
2019-06-07T22:26:28.571Z,19.24
2019-06-07T22:28:57.585Z,19.53
2019-06-07T22:31:26.640Z,19.58
2019-06-07T22:33:55.051Z,19.58
2019-06-07T22:36:24.121Z,19.69
2019-06-07T22:38:53.108Z,19.46
2019-06-07T22:41:22.103Z,19.45
2019-06-07T22:43:50.998Z,19.31
2019-06-07T22:46:35.909Z,19.46
2019-06-07T22:48:56.939Z,19.44
2019-06-07T22:51:26.131Z,19.32
2019-06-07T22:53:58.516Z,19.28
2019-06-07T22:56:42.586Z,19.81
2019-06-07T22:59:15.277Z,19.43
2019-06-07T23:01:46.363Z,19.43
2019-06-07T23:04:16.470Z,19.61
2019-06-07T23:06:45.895Z,19.68
2019-06-07T23:09:14.973Z,19.72
2019-06-07T23:11:45.472Z,19.62
2019-06-07T23:14:15.398Z,19.51
2019-06-07T23:16:55.044Z,19.84
2019-06-07T23:19:16.220Z,19.69
2019-06-07T23:21:45.113Z,19.56
2019-06-07T23:24:14.186Z,19.60
2019-06-07T23:26:43.542Z,19.76
2019-06-07T23:29:12.557Z,19.76
2019-06-07T23:31:41.580Z,19.56
2019-06-07T23:34:10.632Z,19.63
2019-06-07T23:36:38.980Z,19.70
2019-06-07T23:39:07.991Z,19.70
2019-06-07T23:41:37.336Z,19.66
2019-06-07T23:44:06.566Z,19.51
2019-06-07T23:46:35.589Z,19.65
2019-06-07T23:49:04.942Z,19.62
2019-06-07T23:51:34.061Z,19.62
2019-06-07T23:54:03.740Z,19.62
2019-06-07T23:56:32.896Z,19.68
2019-06-07T23:59:01.989Z,19.83
